Time;durP1;ratioP1;P1;durP2;ratioP2;P2;SDS_P1;SDS_P2;PMS_P1;PMS_P2;Temp;Humidity;BMP_temperature;BMP_pressure;BME280_temperature;BME280_humidity;BME280_pressure;Samples;Min_cycle;Max_cycle;Signal;HPM_P1;HPM_P2
2022/02/19 00:00:59;;;;;;;1999.90;999.90;;;;;;;11.09;78.98;165358.50;5010927;28;20108;-69
2022/02/19 00:03:26;;;;;;;1999.90;999.90;;;;;;;11.00;78.79;165332.31;5013715;28;20060;-68
2022/02/19 00:05:52;;;;;;;1999.90;999.90;;;;;;;10.80;77.66;165279.97;5019352;28;20046;-68
2022/02/19 00:08:19;;;;;;;1999.90;999.90;;;;;;;11.03;77.47;165340.56;5023966;28;20474;-68
2022/02/19 00:10:45;;;;;;;1999.90;999.90;;;;;;;10.78;76.36;165274.50;5013286;28;20449;-68
2022/02/19 00:13:12;;;;;;;1999.90;999.90;;;;;;;10.62;76.23;165231.78;5015100;28;20053;-67
2022/02/19 00:15:39;;;;;;;1999.90;999.90;;;;;;;10.70;75.29;165252.41;5018921;28;20103;-69
2022/02/19 00:18:05;;;;;;;1999.90;999.90;;;;;;;10.59;74.41;165222.16;5018917;28;20077;-68
2022/02/19 00:20:32;;;;;;;1999.90;999.90;;;;;;;10.73;74.81;165260.69;5023296;28;20042;-68
2022/02/19 00:23:00;;;;;;;1999.90;999.90;;;;;;;10.66;73.88;165242.81;5020780;28;20045;-68
2022/02/19 00:25:26;;;;;;;1999.90;999.90;;;;;;;10.72;74.28;165259.31;5019960;28;20104;-68
2022/02/19 00:27:53;;;;;;;1999.90;999.90;;;;;;;10.51;73.33;165202.88;5012681;28;20068;-68
2022/02/19 00:30:20;;;;;;;1999.90;999.90;;;;;;;10.53;72.47;165208.34;5022513;28;20049;-68
2022/02/19 00:32:47;;;;;;;1999.90;999.90;;;;;;;10.56;71.06;165216.63;5019281;28;20085;-68
2022/02/19 00:35:14;;;;;;;1999.90;999.90;;;;;;;10.51;70.03;165201.47;5019469;28;20045;-68
2022/02/19 00:37:40;;;;;;;1999.90;999.90;;;;;;;10.28;68.71;165139.47;5019811;28;20050;-69
2022/02/19 00:40:08;;;;;;;1999.90;999.90;;;;;;;10.42;68.55;165176.69;5021101;28;20081;-67
2022/02/19 00:42:34;;;;;;;1999.90;999.90;;;;;;;10.25;65.83;165132.56;5018435;28;20095;-68
2022/02/19 00:45:00;;;;;;;1999.90;999.90;;;;;;;10.10;64.94;165092.63;5015208;28;20107;-68
2022/02/19 00:47:27;;;;;;;1999.90;999.90;;;;;;;10.25;64.72;165131.22;5015041;28;20049;-68
2022/02/19 00:49:54;;;;;;;1999.90;999.90;;;;;;;10.30;63.34;165144.97;5020790;28;20045;-68
2022/02/19 00:52:20;;;;;;;1999.90;999.90;;;;;;;10.34;62.82;165157.41;5019441;28;20801;-68
2022/02/19 00:54:47;;;;;;;1999.90;999.90;;;;;;;10.32;62.29;165150.50;5016785;28;20081;-68
2022/02/19 00:57:14;;;;;;;1999.90;999.90;;;;;;;10.07;61.94;165084.38;5017886;28;20346;-68
2022/02/19 00:59:40;;;;;;;1999.90;999.90;;;;;;;10.34;61.46;165156.03;5018736;28;20082;-68
2022/02/19 01:02:07;;;;;;;1999.90;999.90;;;;;;;10.09;60.78;165088.50;5020228;28;20081;-68
2022/02/19 01:04:33;;;;;;;1999.90;999.90;;;;;;;10.12;60.84;165096.78;5022887;28;20089;-68
2022/02/19 01:07:00;;;;;;;1999.90;999.90;;;;;;;10.10;59.80;165092.63;5029984;28;20212;-68
2022/02/19 01:09:26;;;;;;;1999.90;999.90;;;;;;;10.06;59.53;165081.63;5021292;28;20045;-68
2022/02/19 01:11:54;;;;;;;1999.90;999.90;;;;;;;10.04;57.62;165076.13;5022637;28;20104;-67
2022/02/19 01:14:21;;;;;;;1999.90;999.90;;;;;;;9.97;57.61;165056.84;5023072;28;20470;-67
2022/02/19 01:16:47;;;;;;;1999.90;999.90;;;;;;;10.16;56.87;165109.16;5023732;28;20045;-68
2022/02/19 01:19:14;;;;;;;1999.90;999.90;;;;;;;9.81;55.42;165014.16;5023482;28;20093;-67
2022/02/19 01:21:40;;;;;;;1999.90;999.90;;;;;;;9.97;55.73;165056.84;5016705;28;20057;-68
2022/02/19 01:24:07;;;;;;;1999.90;999.90;;;;;;;10.00;55.20;165065.09;5023740;28;20053;-68
2022/02/19 01:26:33;;;;;;;1999.90;999.90;;;;;;;9.92;54.08;165044.47;5013668;28;20132;-68
2022/02/19 01:29:01;;;;;;;1999.90;999.90;;;;;;;9.85;53.70;165026.59;5018192;28;20116;-68
2022/02/19 01:31:28;;;;;;;1999.90;999.90;;;;;;;9.79;53.77;165010.03;5021246;28;20100;-68
2022/02/19 01:33:54;;;;;;;1999.90;999.90;;;;;;;9.93;53.74;165045.81;5024069;28;20528;-68
2022/02/19 01:36:21;;;;;;;1999.90;999.90;;;;;;;9.93;53.85;165045.81;5024710;28;20049;-68
2022/02/19 01:38:47;;;;;;;1999.90;999.90;;;;;;;9.96;54.10;165054.06;5018291;28;20130;-68
2022/02/19 01:41:14;;;;;;;1999.90;999.90;;;;;;;9.84;54.24;165023.81;5017569;28;20084;-68
2022/02/19 01:43:41;;;;;;;1999.90;999.90;;;;;;;10.08;54.27;165087.16;5017235;28;20082;-68
2022/02/19 01:46:07;;;;;;;1999.90;999.90;;;;;;;9.92;54.19;165043.09;5027413;28;20056;-69
2022/02/19 01:48:34;;;;;;;1999.90;999.90;;;;;;;9.86;54.43;165029.31;5029405;28;20049;-69
2022/02/19 01:51:00;;;;;;;1999.90;999.90;;;;;;;9.79;54.25;165010.03;5020730;28;20054;-69
2022/02/19 01:53:27;;;;;;;1999.90;999.90;;;;;;;9.72;53.77;164990.81;5014866;28;20085;-68
2022/02/19 01:55:56;;;;;;;1999.90;999.90;;;;;;;9.75;53.65;164997.66;5025803;28;20057;-68
2022/02/19 01:58:23;;;;;;;1999.90;999.90;;;;;;;9.71;53.65;164988.03;5016538;28;20054;-68
2022/02/19 02:00:50;;;;;;;1999.90;999.90;;;;;;;9.67;53.88;164977.00;5016441;28;20736;-69
2022/02/19 02:03:16;;;;;;;1999.90;999.90;;;;;;;9.72;54.22;164990.81;5027678;28;20055;-69
2022/02/19 02:05:43;;;;;;;1999.90;999.90;;;;;;;9.64;53.64;164968.75;5014274;28;20409;-68
2022/02/19 02:08:10;;;;;;;1999.90;999.90;;;;;;;9.79;53.02;165008.69;5023048;28;20053;-69
2022/02/19 02:10:36;;;;;;;1999.90;999.90;;;;;;;9.84;53.65;165022.41;5010508;28;20395;-69
2022/02/19 02:13:04;;;;;;;1999.90;999.90;;;;;;;9.76;53.67;165000.41;5019952;28;20081;-69
2022/02/19 02:15:33;;;;;;;1999.90;999.90;;;;;;;9.62;53.91;164963.28;5018809;28;20335;-68
2022/02/19 02:18:00;;;;;;;1999.90;999.90;;;;;;;9.66;53.02;164975.66;5024403;28;20050;-69
2022/02/19 02:20:27;;;;;;;1999.90;999.90;;;;;;;9.57;53.64;164950.91;5020482;28;20062;-69
2022/02/19 02:22:54;;;;;;;1999.90;999.90;;;;;;;9.64;53.19;164968.75;5014792;28;20054;-69
2022/02/19 02:25:28;;;;;;;1999.90;999.90;;;;;;;9.65;53.36;164972.88;5023547;28;20084;-68
2022/02/19 02:27:55;;;;;;;1999.90;999.90;;;;;;;9.59;54.78;164956.38;5023627;28;20113;-69
2022/02/19 02:30:28;;;;;;;1999.90;999.90;;;;;;;9.72;53.43;164990.81;5014823;28;20281;-69
2022/02/19 02:32:54;;;;;;;1999.90;999.90;;;;;;;9.42;53.97;164910.94;5025240;28;20119;-69
2022/02/19 02:35:21;;;;;;;1999.90;999.90;;;;;;;9.30;54.04;164879.31;5025382;28;20057;-69
2022/02/19 02:37:47;;;;;;;1999.90;999.90;;;;;;;9.33;54.52;164887.59;5020146;28;20147;-69
2022/02/19 02:40:14;;;;;;;1999.90;999.90;;;;;;;9.38;54.83;164898.56;5019748;28;20045;-69
2022/02/19 02:42:41;;;;;;;1999.90;999.90;;;;;;;9.33;53.94;164887.59;5015836;28;20058;-68
2022/02/19 02:45:09;;;;;;;1999.90;999.90;;;;;;;9.14;53.76;164836.66;5026433;28;20115;-68
2022/02/19 02:47:56;;;;;;;1999.90;999.90;;;;;;;9.08;53.31;164818.75;5015090;28;20370;-69
2022/02/19 02:50:22;;;;;;;1999.90;999.90;;;;;;;9.16;54.14;164842.16;5016914;28;20092;-68
2022/02/19 02:52:49;;;;;;;1999.90;999.90;;;;;;;9.16;54.65;164842.16;5025226;28;20092;-68
2022/02/19 02:55:15;;;;;;;1999.90;999.90;;;;;;;9.02;54.99;164802.25;5026454;28;20497;-68
2022/02/19 02:57:42;;;;;;;1999.90;999.90;;;;;;;8.82;55.09;164749.97;5013039;28;20103;-68
2022/02/19 03:00:11;;;;;;;1999.90;999.90;;;;;;;8.81;55.48;164747.22;5013763;28;20096;-68
2022/02/19 03:02:39;;;;;;;1999.90;999.90;;;;;;;9.02;55.65;164803.66;5018564;28;20427;-68
2022/02/19 03:05:08;;;;;;;1999.90;999.90;;;;;;;8.76;56.11;164733.47;5019246;28;20050;-68
2022/02/19 03:07:35;;;;;;;1999.90;999.90;;;;;;;8.68;57.01;164711.44;5022759;28;20469;-68
2022/02/19 03:10:03;;;;;;;1999.90;999.90;;;;;;;8.78;56.52;164740.38;5011392;28;20092;-68
2022/02/19 03:12:30;;;;;;;1999.90;999.90;;;;;;;8.52;56.74;164670.19;5021125;28;20100;-68
2022/02/19 03:14:56;;;;;;;1999.90;999.90;;;;;;;8.54;56.98;164674.31;5017102;28;20092;-68
2022/02/19 03:17:22;;;;;;;1999.90;999.90;;;;;;;8.38;57.22;164633.03;5025542;28;20435;-68
2022/02/19 03:19:49;;;;;;;1999.90;999.90;;;;;;;8.34;57.77;164622.00;5014864;28;20467;-68
2022/02/19 03:22:15;;;;;;;1999.90;999.90;;;;;;;8.37;57.23;164628.91;5018173;28;20049;-68
2022/02/19 03:24:42;;;;;;;1999.90;999.90;;;;;;;8.47;57.37;164656.47;5021406;28;20097;-68
2022/02/19 03:27:09;;;;;;;1999.90;999.90;;;;;;;8.48;57.05;164657.81;5018012;28;20299;-68
2022/02/19 03:29:36;;;;;;;1999.90;999.90;;;;;;;8.40;56.75;164638.50;5019784;28;20143;-68
2022/02/19 03:32:04;;;;;;;1999.90;999.90;;;;;;;8.35;56.62;164624.78;5027196;28;20087;-68
2022/02/19 03:34:31;;;;;;;1999.90;999.90;;;;;;;8.30;57.11;164611.00;5015557;28;20049;-68
2022/02/19 03:36:57;;;;;;;1999.90;999.90;;;;;;;8.16;57.51;164572.50;5018536;28;20100;-68
2022/02/19 03:39:24;;;;;;;1999.90;999.90;;;;;;;8.18;56.51;164578.03;5014743;28;20088;-68
2022/02/19 03:41:50;;;;;;;1999.90;999.90;;;;;;;8.36;57.06;164626.16;5014668;28;20123;-68
2022/02/19 03:44:17;;;;;;;1999.90;999.90;;;;;;;8.26;56.90;164600.00;5011261;28;20151;-67
2022/02/19 03:46:43;;;;;;;1999.90;999.90;;;;;;;8.35;57.07;164624.78;5015794;28;20463;-68
2022/02/19 03:49:10;;;;;;;1999.90;999.90;;;;;;;8.12;57.52;164562.88;5013941;28;20061;-68
2022/02/19 03:51:36;;;;;;;1999.90;999.90;;;;;;;8.06;57.84;164547.75;5018583;28;20096;-68
2022/02/19 03:54:03;;;;;;;1999.90;999.90;;;;;;;8.03;57.50;164539.50;5014667;28;20049;-68
2022/02/19 03:56:30;;;;;;;1999.90;999.90;;;;;;;8.10;56.86;164558.75;5016709;28;20107;-67
2022/02/19 03:58:56;;;;;;;1999.90;999.90;;;;;;;8.21;56.36;164586.25;5027191;28;20078;-68
2022/02/19 04:01:23;;;;;;;1999.90;999.90;;;;;;;8.02;56.53;164536.75;5009083;28;20092;-68
2022/02/19 04:03:49;;;;;;;1999.90;999.90;;;;;;;8.06;56.47;164546.38;5019438;28;20104;-67
2022/02/19 04:06:16;;;;;;;1999.90;999.90;;;;;;;8.18;56.52;164578.03;5012004;28;20042;-68
2022/02/19 04:08:42;;;;;;;1999.90;999.90;;;;;;;7.94;56.93;164514.75;5012824;28;20396;-68
2022/02/19 04:11:09;;;;;;;1999.90;999.90;;;;;;;8.05;56.78;164543.63;5016714;28;20441;-68
2022/02/19 04:13:35;;;;;;;1999.90;999.90;;;;;;;7.92;56.70;164509.28;5011630;28;20053;-69
2022/02/19 04:16:02;;;;;;;1999.90;999.90;;;;;;;7.79;57.08;164474.91;5015092;28;20161;-68
2022/02/19 04:18:29;;;;;;;1999.90;999.90;;;;;;;7.89;57.66;164501.00;5010272;28;20041;-68
2022/02/19 04:20:55;;;;;;;1999.90;999.90;;;;;;;7.86;57.37;164492.75;5019927;28;20402;-68
2022/02/19 04:23:22;;;;;;;1999.90;999.90;;;;;;;7.79;57.83;164474.91;5020626;28;20084;-69
2022/02/19 04:25:48;;;;;;;1999.90;999.90;;;;;;;7.63;58.25;164432.28;5017736;28;20469;-68
2022/02/19 04:28:20;;;;;;;1999.90;999.90;;;;;;;7.76;58.78;164468.00;5011739;28;20417;-69
2022/02/19 04:30:46;;;;;;;1999.90;999.90;;;;;;;7.73;58.56;164459.78;5012369;28;20431;-69
2022/02/19 04:33:13;;;;;;;1999.90;999.90;;;;;;;7.79;58.73;164473.53;5022564;28;20045;-69
2022/02/19 04:35:39;;;;;;;1999.90;999.90;;;;;;;7.63;59.59;164430.91;5015302;28;20081;-69
2022/02/19 04:38:06;;;;;;;1999.90;999.90;;;;;;;7.52;59.65;164402.06;5016135;28;20049;-69
2022/02/19 04:40:33;;;;;;;1999.90;999.90;;;;;;;7.57;59.31;164415.78;5026287;28;20077;-68
2022/02/19 04:42:59;;;;;;;1999.90;999.90;;;;;;;7.39;60.06;164369.03;5011047;28;20085;-68
2022/02/19 04:45:26;;;;;;;1999.90;999.90;;;;;;;7.47;59.99;164388.28;5019910;28;20099;-69
2022/02/19 04:47:53;;;;;;;1999.90;999.90;;;;;;;7.40;59.81;164371.81;5011742;28;20100;-69
2022/02/19 04:50:20;;;;;;;1999.90;999.90;;;;;;;7.35;60.07;164358.09;5015025;28;20099;-69
2022/02/19 04:52:46;;;;;;;1999.90;999.90;;;;;;;7.50;60.13;164397.94;5010485;28;20045;-69
2022/02/19 04:55:13;;;;;;;1999.90;999.90;;;;;;;7.31;60.36;164347.09;5015046;28;20050;-69
2022/02/19 04:57:44;;;;;;;1999.90;999.90;;;;;;;7.46;60.03;164385.53;5015544;28;20431;-69
2022/02/19 05:00:17;;;;;;;1999.90;999.90;;;;;;;7.37;60.87;164363.56;5013314;28;20139;-69
2022/02/19 05:02:43;;;;;;;1999.90;999.90;;;;;;;7.32;60.57;164349.78;5009270;28;20050;-68
2022/02/19 05:05:10;;;;;;;1999.90;999.90;;;;;;;7.28;60.62;164338.84;5018259;28;20080;-69
2022/02/19 05:07:37;;;;;;;1999.90;999.90;;;;;;;7.34;60.66;164355.31;5014550;28;20653;-68
2022/02/19 05:10:04;;;;;;;1999.90;999.90;;;;;;;7.19;60.03;164315.47;5023684;28;20442;-69
2022/02/19 05:12:31;;;;;;;1999.90;999.90;;;;;;;7.19;60.44;164315.47;5015361;28;20089;-69
2022/02/19 05:14:58;;;;;;;1999.90;999.90;;;;;;;7.27;58.78;164336.06;5009002;28;20053;-68
2022/02/19 05:17:24;;;;;;;1999.90;999.90;;;;;;;7.31;58.92;164345.69;5019213;28;20108;-68
2022/02/19 05:19:51;;;;;;;1999.90;999.90;;;;;;;7.24;58.84;164327.84;5014765;28;20135;-69
2022/02/19 05:22:17;;;;;;;1999.90;999.90;;;;;;;7.30;58.94;164344.31;5020878;28;20095;-69
2022/02/19 05:24:44;;;;;;;1999.90;999.90;;;;;;;7.33;59.01;164352.56;5011960;28;20054;-68
2022/02/19 05:27:11;;;;;;;1999.90;999.90;;;;;;;7.35;59.61;164356.69;5011980;28;20103;-69
2022/02/19 05:29:37;;;;;;;1999.90;999.90;;;;;;;7.24;59.89;164327.84;5014369;28;20431;-69
2022/02/19 05:32:04;;;;;;;1999.90;999.90;;;;;;;7.64;59.56;164433.69;5016260;28;20400;-69
2022/02/19 05:34:31;;;;;;;1999.90;999.90;;;;;;;7.29;60.12;164341.56;5012375;28;20054;-69
2022/02/19 05:36:57;;;;;;;1999.90;999.90;;;;;;;7.31;60.36;164345.69;5017736;28;20072;-68
2022/02/19 05:39:24;;;;;;;1999.90;999.90;;;;;;;7.27;60.09;164334.72;5026754;28;20073;-69
2022/02/19 05:41:50;;;;;;;1999.90;999.90;;;;;;;7.12;59.90;164296.22;5019894;28;20057;-69
2022/02/19 05:44:16;;;;;;;1999.90;999.90;;;;;;;7.22;59.11;164323.72;5018844;28;20041;-68
2022/02/19 05:46:47;;;;;;;1999.90;999.90;;;;;;;7.25;59.96;164330.59;5019872;28;20104;-69
2022/02/19 05:49:13;;;;;;;1999.90;999.90;;;;;;;7.31;59.42;164347.09;5027200;28;20054;-69
2022/02/19 05:51:40;;;;;;;1999.90;999.90;;;;;;;7.30;59.67;164344.31;5014941;28;20057;-68
2022/02/19 05:54:06;;;;;;;1999.90;999.90;;;;;;;7.38;59.66;164366.31;5017984;28;20096;-68
2022/02/19 05:56:33;;;;;;;1999.90;999.90;;;;;;;7.35;59.76;164358.09;5012548;28;20046;-68
2022/02/19 05:58:59;;;;;;;1999.90;999.90;;;;;;;7.22;60.36;164322.34;5014022;28;20050;-68
2022/02/19 06:01:26;;;;;;;1999.90;999.90;;;;;;;7.29;60.13;164341.56;5019635;28;20058;-68
2022/02/19 06:03:52;;;;;;;1999.90;999.90;;;;;;;7.30;60.24;164342.97;5016916;28;20046;-69
2022/02/19 06:06:19;;;;;;;1999.90;999.90;;;;;;;7.23;59.97;164325.06;5023152;28;20388;-68
2022/02/19 06:08:45;;;;;;;1999.90;999.90;;;;;;;7.25;59.66;164330.59;5020712;28;20422;-68
2022/02/19 06:11:12;;;;;;;1999.90;999.90;;;;;;;7.13;59.69;164297.59;5020239;28;20081;-68
2022/02/19 06:13:38;;;;;;;1999.90;999.90;;;;;;;7.11;59.60;164292.09;5021040;28;20107;-68
2022/02/19 06:16:05;;;;;;;1999.90;999.90;;;;;;;7.33;59.48;164352.56;5023600;28;20282;-69
2022/02/19 06:18:31;;;;;;;1999.90;999.90;;;;;;;7.08;59.07;164283.88;5024917;28;20294;-68
2022/02/19 06:20:57;;;;;;;1999.90;999.90;;;;;;;7.14;59.22;164301.72;5017556;28;20120;-69
2022/02/19 06:23:24;;;;;;;1999.90;999.90;;;;;;;7.39;59.14;164369.03;5014265;28;20502;-69
2022/02/19 06:25:50;;;;;;;1999.90;999.90;;;;;;;7.44;58.99;164380.03;5017722;28;20447;-69
2022/02/19 06:28:17;;;;;;;1999.90;999.90;;;;;;;7.46;59.47;164386.94;5021991;28;20081;-69
2022/02/19 06:30:43;;;;;;;1999.90;999.90;;;;;;;7.29;60.34;164340.19;5023980;28;20077;-69
2022/02/19 06:33:10;;;;;;;1999.90;999.90;;;;;;;7.11;59.91;164293.47;5016666;28;20171;-68
2022/02/19 06:35:37;;;;;;;1999.90;999.90;;;;;;;7.23;60.12;164325.06;5021586;28;20135;-69
2022/02/19 06:38:04;;;;;;;1999.90;999.90;;;;;;;7.28;60.31;164338.84;5015406;28;20262;-68
2022/02/19 06:40:30;;;;;;;1999.90;999.90;;;;;;;7.36;59.65;164360.81;5016079;28;20053;-68
2022/02/19 06:42:57;;;;;;;1999.90;999.90;;;;;;;7.26;58.85;164331.97;5020843;28;20053;-68
2022/02/19 06:45:23;;;;;;;1999.90;999.90;;;;;;;7.13;59.21;164297.59;5014544;28;20087;-68
2022/02/19 06:47:50;;;;;;;1999.90;999.90;;;;;;;7.11;57.98;164292.09;5026942;28;20450;-68
2022/02/19 06:50:17;;;;;;;1999.90;999.90;;;;;;;7.14;56.87;164300.34;5018130;28;20466;-67
2022/02/19 06:52:43;;;;;;;1999.90;999.90;;;;;;;7.14;56.64;164300.34;5022425;28;20158;-68
2022/02/19 06:55:10;;;;;;;1999.90;999.90;;;;;;;7.20;55.16;164318.19;5015611;28;20077;-68
2022/02/19 06:57:40;;;;;;;1999.90;999.90;;;;;;;7.21;54.42;164319.59;5026327;28;20057;-68
2022/02/19 07:00:08;;;;;;;1999.90;999.90;;;;;;;7.17;54.70;164309.94;5012149;28;20112;-69
2022/02/19 07:02:34;;;;;;;1999.90;999.90;;;;;;;7.01;55.19;164267.38;5013958;28;20057;-68
2022/02/19 07:05:01;;;;;;;1999.90;999.90;;;;;;;7.01;55.44;164265.97;5011853;28;20057;-68
2022/02/19 07:07:32;;;;;;;1999.90;999.90;;;;;;;7.16;54.83;164305.81;5014075;28;20046;-68
2022/02/19 07:09:59;;;;;;;1999.90;999.90;;;;;;;7.00;54.91;164264.63;5010489;28;20574;-68
2022/02/19 07:12:26;;;;;;;1999.90;999.90;;;;;;;7.08;55.00;164283.88;5014675;28;20079;-68
2022/02/19 07:14:52;;;;;;;1999.90;999.90;;;;;;;7.09;55.11;164288.00;5017676;28;20077;-68
2022/02/19 07:17:19;;;;;;;1999.90;999.90;;;;;;;7.04;54.84;164275.63;5019969;28;20070;-68
2022/02/19 07:19:45;;;;;;;1999.90;999.90;;;;;;;7.19;54.43;164315.47;5016141;28;20053;-68
2022/02/19 07:22:12;;;;;;;1999.90;999.90;;;;;;;7.26;54.02;164333.31;5018821;28;20053;-68
2022/02/19 07:24:38;;;;;;;1999.90;999.90;;;;;;;7.24;54.19;164327.84;5017375;28;20054;-68
2022/02/19 07:27:05;;;;;;;1999.90;999.90;;;;;;;7.18;54.35;164311.34;5016279;28;20085;-67
2022/02/19 07:29:31;;;;;;;1999.90;999.90;;;;;;;7.31;53.97;164347.09;5013677;28;20049;-68
2022/02/19 07:31:58;;;;;;;1999.90;999.90;;;;;;;7.29;54.47;164341.56;5020220;28;20139;-68
2022/02/19 07:34:24;;;;;;;1999.90;999.90;;;;;;;7.25;53.96;164330.59;5014126;28;20076;-68
2022/02/19 07:36:51;;;;;;;1999.90;999.90;;;;;;;7.46;54.30;164385.53;5014888;28;20439;-68
2022/02/19 07:39:17;;;;;;;1999.90;999.90;;;;;;;7.36;53.77;164359.44;5014756;28;20083;-67
2022/02/19 07:41:44;;;;;;;1999.90;999.90;;;;;;;7.27;53.55;164334.72;5012011;28;20046;-68
2022/02/19 07:44:10;;;;;;;1999.90;999.90;;;;;;;7.28;53.60;164338.84;5019837;28;20134;-67
2022/02/19 07:46:37;;;;;;;1999.90;999.90;;;;;;;7.58;52.86;164419.91;5013486;28;20153;-68
2022/02/19 08:00:04;;;;;;;1999.90;999.90;;;;;;;7.45;52.59;164384.19;5022873;28;20065;-67
2022/02/19 08:02:31;;;;;;;1999.90;999.90;;;;;;;7.63;51.02;164432.28;5016182;28;20049;-67
2022/02/19 08:04:57;;;;;;;1999.90;999.90;;;;;;;7.62;50.85;164428.16;5013483;28;20049;-67
2022/02/19 08:07:24;;;;;;;1999.90;999.90;;;;;;;7.73;51.16;164459.78;5021163;28;20099;-67
2022/02/19 08:09:50;;;;;;;1999.90;999.90;;;;;;;7.62;50.29;164429.50;5018961;28;20046;-68
2022/02/19 08:12:16;;;;;;;1999.90;999.90;;;;;;;7.68;50.53;164446.03;5013366;28;20101;-68
2022/02/19 08:14:43;;;;;;;1999.90;999.90;;;;;;;7.81;48.63;164480.38;5014764;28;20080;-68
2022/02/19 08:17:10;;;;;;;1999.90;999.90;;;;;;;7.75;49.60;164463.88;5017114;28;20141;-69
2022/02/19 08:19:36;;;;;;;1999.90;999.90;;;;;;;7.89;48.19;164501.00;5013784;28;20069;-69
2022/02/19 08:22:03;;;;;;;1999.90;999.90;;;;;;;8.10;49.06;164557.41;5015707;28;20103;-69
2022/02/19 08:24:29;;;;;;;1999.90;999.90;;;;;;;7.93;46.18;164513.41;5012117;28;20430;-69
2022/02/19 08:26:56;;;;;;;1999.90;999.90;;;;;;;8.06;45.40;164547.75;5013841;28;20290;-68
2022/02/19 08:29:22;;;;;;;1999.90;999.90;;;;;;;8.28;45.34;164606.88;5019055;28;20272;-69
2022/02/19 08:31:49;;;;;;;1999.90;999.90;;;;;;;8.04;45.43;164540.84;5024180;28;20057;-68
2022/02/19 08:34:16;;;;;;;1999.90;999.90;;;;;;;8.36;45.19;164627.50;5011173;28;20050;-69
2022/02/19 08:36:42;;;;;;;1999.90;999.90;;;;;;;8.11;45.93;164561.53;5020855;28;20046;-68
2022/02/19 08:39:09;;;;;;;1999.90;999.90;;;;;;;8.00;43.63;164529.91;5015148;28;20053;-68
2022/02/19 08:41:35;;;;;;;1999.90;999.90;;;;;;;8.06;43.54;164546.38;5019942;28;20050;-68
2022/02/19 08:44:02;;;;;;;1999.90;999.90;;;;;;;8.14;42.87;164568.38;5016474;28;20046;-68
2022/02/19 08:46:29;;;;;;;1999.90;999.90;;;;;;;8.64;42.08;164701.84;5021234;28;20532;-68
2022/02/19 08:48:55;;;;;;;1999.90;999.90;;;;;;;8.69;42.15;164714.22;5020627;28;20386;-68
2022/02/19 08:51:22;;;;;;;1999.90;999.90;;;;;;;8.83;42.08;164752.75;5022700;28;20435;-68
2022/02/19 08:53:48;;;;;;;1999.90;999.90;;;;;;;8.96;41.17;164787.09;5014754;28;20050;-67
2022/02/19 08:56:15;;;;;;;1999.90;999.90;;;;;;;8.99;40.54;164795.34;5012290;28;20192;-68
2022/02/19 08:58:41;;;;;;;1999.90;999.90;;;;;;;8.61;41.58;164693.59;5027277;28;20154;-68
2022/02/19 09:01:08;;;;;;;1999.90;999.90;;;;;;;8.78;43.82;164740.38;5015587;28;20065;-68
2022/02/19 09:03:34;;;;;;;1999.90;999.90;;;;;;;8.64;43.99;164703.19;5015375;28;20057;-68
2022/02/19 09:06:01;;;;;;;1999.90;999.90;;;;;;;8.69;44.91;164715.56;5014653;28;20042;-68
2022/02/19 09:08:27;;;;;;;1999.90;999.90;;;;;;;8.66;45.72;164705.97;5012636;28;20346;-68
2022/02/19 09:10:54;;;;;;;1999.90;999.90;;;;;;;8.56;46.29;164679.81;5014396;28;20073;-68
2022/02/19 09:13:20;;;;;;;1999.90;999.90;;;;;;;8.46;46.49;164655.06;5018640;28;20135;-68
2022/02/19 09:15:49;;;;;;;1999.90;999.90;;;;;;;8.52;46.54;164668.84;5015207;28;20146;-69
2022/02/19 09:18:16;;;;;;;1999.90;999.90;;;;;;;8.45;45.11;164652.28;5014157;28;20042;-68
2022/02/19 09:20:42;;;;;;;1999.90;999.90;;;;;;;8.60;45.34;164690.81;5014189;28;20096;-69
2022/02/19 09:23:09;;;;;;;1999.90;999.90;;;;;;;8.90;43.64;164770.59;5020601;28;20084;-69
2022/02/19 09:25:35;;;;;;;1999.90;999.90;;;;;;;8.69;42.50;164715.56;5027012;28;20049;-68
2022/02/19 09:28:02;;;;;;;1999.90;999.90;;;;;;;9.11;43.70;164828.41;5020789;28;20049;-68
2022/02/19 09:30:29;;;;;;;1999.90;999.90;;;;;;;8.73;42.09;164725.22;5015713;28;20485;-68
2022/02/19 09:32:59;;;;;;;1999.90;999.90;;;;;;;9.15;42.21;164838.03;5024008;28;20061;-69
2022/02/19 09:35:27;;;;;;;1999.90;999.90;;;;;;;8.80;42.58;164745.84;5022166;28;20048;-68
2022/02/19 09:37:53;;;;;;;1999.90;999.90;;;;;;;9.12;41.33;164831.13;5016732;28;20389;-68
2022/02/19 09:40:20;;;;;;;1999.90;999.90;;;;;;;8.84;42.07;164755.47;5026414;28;20429;-68
2022/02/19 09:42:49;;;;;;;1999.90;999.90;;;;;;;8.95;41.69;164784.38;5023519;28;20069;-68
2022/02/19 09:45:17;;;;;;;1999.90;999.90;;;;;;;9.08;42.07;164820.16;5022407;28;20420;-68
2022/02/19 09:47:44;;;;;;;1999.90;999.90;;;;;;;9.15;42.19;164839.44;5014447;28;20092;-68
2022/02/19 09:50:11;;;;;;;1999.90;999.90;;;;;;;8.95;41.88;164784.38;5017414;28;20501;-68
2022/02/19 09:52:38;;;;;;;1999.90;999.90;;;;;;;9.09;42.92;164822.88;5017603;28;20533;-68
2022/02/19 09:55:06;;;;;;;1999.90;999.90;;;;;;;8.84;41.38;164754.09;5012548;28;20046;-68
2022/02/19 09:57:33;;;;;;;1999.90;999.90;;;;;;;8.95;42.36;164785.75;5013584;28;20049;-68
2022/02/19 10:00:00;;;;;;;1999.90;999.90;;;;;;;9.18;40.59;164846.28;5017371;28;20080;-69
2022/02/19 10:02:34;;;;;;;1999.90;999.90;;;;;;;9.34;40.75;164890.31;5022804;28;20328;-67
2022/02/19 10:05:16;;;;;;;1999.90;999.90;;;;;;;9.15;41.30;164839.44;5013518;28;20060;-67
2022/02/19 10:07:43;;;;;;;1999.90;999.90;;;;;;;9.12;40.91;164831.13;5020014;28;20056;-67
2022/02/19 10:10:24;;;;;;;1999.90;999.90;;;;;;;8.98;41.44;164794.00;5022707;28;20049;-67
2022/02/19 10:12:51;;;;;;;1999.90;999.90;;;;;;;9.12;41.45;164831.13;5020844;28;20050;-67
2022/02/19 10:15:19;;;;;;;1999.90;999.90;;;;;;;8.97;41.02;164789.88;5013230;28;20053;-68
2022/02/19 10:17:49;;;;;;;1999.90;999.90;;;;;;;9.44;40.59;164916.47;5019407;28;20503;-68
2022/02/19 10:20:17;;;;;;;1999.90;999.90;;;;;;;9.57;41.14;164950.91;5022804;28;20084;-68
2022/02/19 10:22:44;;;;;;;1999.90;999.90;;;;;;;9.39;40.53;164901.31;5026042;28;20324;-67
2022/02/19 10:25:13;;;;;;;1999.90;999.90;;;;;;;9.07;40.68;164817.38;5016726;28;20068;-68
2022/02/19 10:27:46;;;;;;;1999.90;999.90;;;;;;;8.86;40.49;164759.56;5014756;28;20112;-68
2022/02/19 10:30:16;;;;;;;1999.90;999.90;;;;;;;9.07;40.26;164817.38;5017711;28;20438;-68
2022/02/19 10:32:57;;;;;;;1999.90;999.90;;;;;;;9.01;40.87;164800.88;5018964;28;20053;-69
2022/02/19 10:35:36;;;;;;;1999.90;999.90;;;;;;;9.47;38.82;164923.38;5024671;28;20399;-68
2022/02/19 10:38:08;;;;;;;1999.90;999.90;;;;;;;9.47;39.86;164924.72;5021424;28;20053;-69
2022/02/19 10:40:39;;;;;;;1999.90;999.90;;;;;;;9.71;38.45;164988.03;5017463;28;20402;-68
2022/02/19 10:43:09;;;;;;;1999.90;999.90;;;;;;;9.36;38.48;164894.44;5027184;28;20339;-68
2022/02/19 10:45:37;;;;;;;1999.90;999.90;;;;;;;9.00;40.00;164798.13;5013095;28;20049;-69
2022/02/19 10:48:16;;;;;;;1999.90;999.90;;;;;;;9.03;41.01;164806.38;5012867;28;20050;-69
2022/02/19 10:50:44;;;;;;;1999.90;999.90;;;;;;;9.36;40.77;164894.44;5021330;28;20307;-68
2022/02/19 10:53:24;;;;;;;1999.90;999.90;;;;;;;9.35;41.35;164891.72;5022634;28;20446;-69
2022/02/19 10:55:51;;;;;;;1999.90;999.90;;;;;;;9.56;40.68;164946.72;5012698;28;20073;-69
2022/02/19 10:58:17;;;;;;;1999.90;999.90;;;;;;;9.27;40.59;164869.66;5016456;28;20488;-69
2022/02/19 11:00:47;;;;;;;1999.90;999.90;;;;;;;9.35;39.62;164891.72;5016057;28;20473;-68
2022/02/19 11:03:16;;;;;;;1999.90;999.90;;;;;;;9.77;40.03;165004.53;5019176;28;20049;-68